createdAt,value
2018-02-17T12:48:48.938Z,24.20
2018-02-17T12:51:15.157Z,24.20
2018-02-17T12:53:41.499Z,24.10
2018-02-17T12:56:07.758Z,23.90
2018-02-17T12:58:33.944Z,23.90
2018-02-17T13:01:00.945Z,23.20
2018-02-17T13:03:27.136Z,23.10
2018-02-17T13:05:53.328Z,22.80
2018-02-17T13:08:19.538Z,22.70
2018-02-17T13:10:45.752Z,23.00
2018-02-17T13:13:12.039Z,23.20
2018-02-17T13:15:38.281Z,23.50
2018-02-17T13:18:04.639Z,23.60
2018-02-17T13:20:30.898Z,23.40
2018-02-17T13:22:57.074Z,23.30
2018-02-17T13:43:07.773Z,25.70
2018-02-17T13:45:34.075Z,25.70
2018-02-17T13:48:01.048Z,24.70
2018-02-17T13:50:27.294Z,24.60
2018-02-17T13:52:54.240Z,24.00
2018-02-17T13:55:21.568Z,23.90
2018-02-17T13:57:47.752Z,24.30
2018-02-17T14:00:16.855Z,24.40
2018-02-17T14:02:43.785Z,24.30
2018-02-17T14:05:10.013Z,24.30
2018-02-17T14:07:36.564Z,24.30
2018-02-17T14:10:02.787Z,24.30
2018-02-17T14:12:28.982Z,24.30
2018-02-17T14:14:55.200Z,24.60
2018-02-17T14:17:21.401Z,24.50
2018-02-17T14:19:47.615Z,24.30
2018-02-17T14:22:15.384Z,24.30
2018-02-17T14:24:41.574Z,24.30
2018-02-17T14:27:07.772Z,24.50
2018-02-17T14:29:33.994Z,25.10
2018-02-17T14:32:00.180Z,25.40
2018-02-17T14:34:26.398Z,25.50
2018-02-17T14:40:20.486Z,24.60
2018-02-17T14:42:46.637Z,20.00
2018-02-17T14:45:12.825Z,15.80
2018-02-17T14:47:38.987Z,12.30
2018-02-17T14:50:14.133Z,9.80
2018-02-17T14:52:40.444Z,8.30
2018-02-17T14:55:07.374Z,6.60
2018-02-17T14:57:33.597Z,6.50
2018-02-17T14:59:59.805Z,6.10
2018-02-17T15:02:26.009Z,5.70
2018-02-17T15:04:52.186Z,5.40
2018-02-17T15:07:18.515Z,5.30
2018-02-17T15:09:48.336Z,5.00
2018-02-17T15:12:14.607Z,4.80
2018-02-17T15:14:40.829Z,4.70
2018-02-17T15:17:07.037Z,4.70
2018-02-17T15:19:37.345Z,4.50
2018-02-17T15:22:03.637Z,4.40
2018-02-17T15:24:30.589Z,4.10
2018-02-17T15:26:57.700Z,4.10
2018-02-17T15:29:23.989Z,4.00
2018-02-17T15:31:51.111Z,3.90
2018-02-17T15:34:17.355Z,3.90
2018-02-17T15:36:43.644Z,4.10
2018-02-17T15:39:28.888Z,4.00
2018-02-17T15:41:55.188Z,3.90
2018-02-17T15:44:21.437Z,3.70
2018-02-17T15:46:47.762Z,3.60
2018-02-17T15:49:14.023Z,3.50
2018-02-17T15:51:41.090Z,3.40
2018-02-17T15:54:07.415Z,3.40
2018-02-17T15:56:33.792Z,3.30
2018-02-17T15:59:00.103Z,3.30
2018-02-17T16:01:26.370Z,3.30
2018-02-17T16:03:56.810Z,3.30
2018-02-17T16:06:23.126Z,3.30
2018-02-17T16:08:49.624Z,3.30
2018-02-17T16:11:15.976Z,3.30
2018-02-17T16:13:42.266Z,3.20
2018-02-17T16:16:08.554Z,3.10
2018-02-17T16:18:34.856Z,3.20
2018-02-17T16:21:01.157Z,3.20
2018-02-17T16:23:28.117Z,3.20
2018-02-17T16:25:55.221Z,3.30
2018-02-17T16:28:21.496Z,3.30
2018-02-17T16:30:47.831Z,3.40
2018-02-17T16:33:14.130Z,3.30
2018-02-17T16:35:40.718Z,3.30
2018-02-17T16:38:06.990Z,3.20
2018-02-17T16:40:34.031Z,3.20
2018-02-17T16:43:00.316Z,3.20
2018-02-17T16:45:28.379Z,3.20
2018-02-17T16:47:55.412Z,3.30
2018-02-17T16:50:21.767Z,3.30
2018-02-17T16:52:48.097Z,3.30
2018-02-17T16:55:16.431Z,3.30
2018-02-17T16:57:42.757Z,3.30
2018-02-17T17:00:09.770Z,3.20
2018-02-17T17:02:36.200Z,3.20
2018-02-17T17:05:03.195Z,3.20
2018-02-17T17:07:29.523Z,3.30
2018-02-17T17:19:33.464Z,3.20
2018-02-17T17:22:37.661Z,3.40
2018-02-17T17:40:09.006Z,3.30
2018-02-17T17:42:35.194Z,3.10
2018-02-17T17:45:02.212Z,3.00
2018-02-17T17:47:28.419Z,3.00
2018-02-17T17:49:54.750Z,3.00
2018-02-17T17:52:21.053Z,2.90
2018-02-17T17:54:48.036Z,2.90
2018-02-17T17:57:14.272Z,2.90
2018-02-17T17:59:40.455Z,3.20
2018-02-17T18:02:06.658Z,3.20
2018-02-17T18:04:32.946Z,3.10
2018-02-17T18:06:59.170Z,3.10
2018-02-17T18:09:25.465Z,3.00
2018-02-17T18:11:52.420Z,2.70
2018-02-17T18:14:19.358Z,2.70
2018-02-17T18:16:45.623Z,2.70
2018-02-17T18:19:11.850Z,2.90
2018-02-17T18:21:38.052Z,3.00
2018-02-17T18:24:04.301Z,2.80
2018-02-17T18:26:31.304Z,2.70
2018-02-17T18:28:57.547Z,2.70
2018-02-17T18:31:23.798Z,2.70
2018-02-17T18:33:50.045Z,2.60
2018-02-17T18:36:16.225Z,2.70
2018-02-17T18:38:42.444Z,2.60
2018-02-17T18:41:08.614Z,2.90
2018-02-17T18:43:34.843Z,2.70
2018-02-17T18:46:01.178Z,2.60
2018-02-17T18:48:27.475Z,2.60
2018-02-17T18:50:53.846Z,2.70
2018-02-17T18:53:20.118Z,2.60
2018-02-17T18:55:46.379Z,2.40
2018-02-17T18:58:13.413Z,2.20
2018-02-17T19:00:40.473Z,2.40
2018-02-17T19:03:06.970Z,2.30
2018-02-17T19:05:33.295Z,2.60
2018-02-17T19:07:59.763Z,2.70
2018-02-17T19:10:26.165Z,2.50
2018-02-17T19:12:52.584Z,2.40
2018-02-17T19:15:18.862Z,2.40
2018-02-17T19:17:45.924Z,2.40
2018-02-17T19:20:12.140Z,2.40
2018-02-17T19:22:38.483Z,2.50
2018-02-17T19:25:05.484Z,2.30
2018-02-17T19:27:31.798Z,2.30
2018-02-17T19:29:58.082Z,2.20
2018-02-17T19:32:24.499Z,2.40
2018-02-17T19:34:51.574Z,2.40
2018-02-17T19:37:17.868Z,2.30
2018-02-17T19:39:44.158Z,2.40
2018-02-17T19:42:11.186Z,2.10
2018-02-17T19:44:37.554Z,2.10
2018-02-17T19:47:03.887Z,2.00
2018-02-17T19:49:30.195Z,2.00
2018-02-17T19:51:56.578Z,1.90
2018-02-17T19:54:23.638Z,1.70
2018-02-17T19:56:50.711Z,1.70
2018-02-17T19:59:17.835Z,1.90
2018-02-17T20:01:44.171Z,1.90
2018-02-17T20:04:10.489Z,2.00
2018-02-17T20:06:37.556Z,1.90
2018-02-17T20:09:03.891Z,1.90
2018-02-17T20:11:30.187Z,1.90
2018-02-17T20:13:58.739Z,1.70
2018-02-17T20:16:25.040Z,1.70
2018-02-17T20:18:51.355Z,1.70
2018-02-17T20:21:18.372Z,1.80
2018-02-17T20:23:44.693Z,1.80
2018-02-17T20:26:10.920Z,1.80
2018-02-17T20:28:37.263Z,1.90
2018-02-17T20:31:04.269Z,1.60
2018-02-17T20:33:30.572Z,1.60
2018-02-17T20:35:56.864Z,1.50
2018-02-17T20:38:23.203Z,1.40
2018-02-17T20:40:49.529Z,1.70
2018-02-17T20:43:15.815Z,1.80
2018-02-17T20:45:42.088Z,1.70
2018-02-17T20:48:08.440Z,1.90
2018-02-17T20:50:34.707Z,1.90
2018-02-17T20:53:01.140Z,1.80
2018-02-17T20:55:27.480Z,1.70
2018-02-17T20:57:54.534Z,1.60
2018-02-17T21:00:20.945Z,1.60
2018-02-17T21:02:47.410Z,1.60
2018-02-17T21:05:15.848Z,1.60
2018-02-17T21:07:42.131Z,1.60
2018-02-17T21:10:08.571Z,1.70
2018-02-17T21:12:35.635Z,1.60
2018-02-17T21:15:02.120Z,1.60
2018-02-17T21:17:28.427Z,1.50
2018-02-17T21:19:55.551Z,1.30
2018-02-17T21:22:22.559Z,1.30
2018-02-17T21:24:50.479Z,1.30
2018-02-17T21:27:17.054Z,1.30
2018-02-17T21:29:43.346Z,1.30
2018-02-17T21:32:10.444Z,1.20
2018-02-17T21:34:36.861Z,1.20
2018-02-17T21:37:03.183Z,1.30
2018-02-17T21:39:29.481Z,1.20
2018-02-17T21:41:55.806Z,1.00
2018-02-17T21:44:22.134Z,1.10
2018-02-17T21:46:48.531Z,1.10
2018-02-17T21:49:15.665Z,1.10
2018-02-17T21:51:42.003Z,1.00
2018-02-17T21:54:08.424Z,1.10
2018-02-17T21:56:35.625Z,1.30
2018-02-17T21:59:01.976Z,1.30
2018-02-17T22:01:28.282Z,1.20
2018-02-17T22:03:54.576Z,1.10
2018-02-17T22:06:20.878Z,0.90
2018-02-17T22:08:47.171Z,0.90
2018-02-17T22:11:17.535Z,0.90
2018-02-17T22:13:43.917Z,0.90
2018-02-17T22:16:10.209Z,0.90
2018-02-17T22:18:37.130Z,0.90
2018-02-17T22:21:06.313Z,0.90
2018-02-17T22:23:32.587Z,0.90
2018-02-17T22:25:58.996Z,0.80
2018-02-17T22:28:25.432Z,0.80
2018-02-17T22:30:51.748Z,0.80
2018-02-17T22:33:18.078Z,0.90
2018-02-17T22:35:45.121Z,0.90
2018-02-17T22:38:12.230Z,0.90
2018-02-17T22:40:38.507Z,0.80
2018-02-17T22:43:04.861Z,0.80
2018-02-17T22:45:31.657Z,0.90
2018-02-17T22:47:58.785Z,0.90
2018-02-17T22:50:25.870Z,0.90
2018-02-17T22:52:52.207Z,0.80
2018-02-17T22:55:19.267Z,0.70
2018-02-17T22:57:47.025Z,0.80
2018-02-17T23:00:25.666Z,0.80
2018-02-17T23:02:53.856Z,0.80
2018-02-17T23:05:20.894Z,0.80
2018-02-17T23:07:47.961Z,0.80
2018-02-17T23:10:14.969Z,0.70
2018-02-17T23:12:41.359Z,0.80
2018-02-17T23:15:07.854Z,0.80
2018-02-17T23:17:34.160Z,0.80
2018-02-17T23:20:01.313Z,0.80
2018-02-17T23:22:32.696Z,0.80
2018-02-17T23:24:59.749Z,0.90
2018-02-17T23:27:26.827Z,1.00
2018-02-17T23:29:53.153Z,0.90
2018-02-17T23:32:20.192Z,1.20
2018-02-17T23:34:48.223Z,1.10
2018-02-17T23:37:14.643Z,1.10
2018-02-17T23:39:41.769Z,1.10
2018-02-17T23:42:08.242Z,1.00
2018-02-17T23:44:35.396Z,1.00
2018-02-17T23:47:01.742Z,1.00
2018-02-17T23:49:28.103Z,1.10
2018-02-17T23:51:56.175Z,1.00
2018-02-17T23:54:23.789Z,1.00
2018-02-17T23:56:50.073Z,1.00
2018-02-17T23:59:16.397Z,1.00
